x

West Sea Otter (46204) Wave Buoy

11:00am - Thu 23rd Feb 2017 All times are PST. -8 hours from GMT.

  • Sig Wave height 4.3ft
  • Peak Period 10s
  • Wind
    13mph, 16mph gusts
  • Sea Temp 47°f
  • Air Temp 40°f
  • Sea Pressure 1025.7mb
  • West Sea Otter
  • West Sea Otter

More Historic Weather Station data

Upgrade to MSW Pro to gain access to the past 30 days of data for over 8000 Wavebouys and Weather Stations around the globe.

Join Pro

Comparision Forecast

View Surf forecast
   
Thu 02/23 11:00am 4.5ft 10s 13 16 mph 1025.7mb 47f 40f
10:00am 5ft 10s 16 20 mph 1026.1mb 47f 41f
9:00am 4.5ft 11s 18 22 mph 1026.3mb 47f 41f
8:00am 5ft 10s 16 20 mph 1026mb 47f 41f
7:00am 4.5ft 10s 18 22 mph 1025.4mb 47f 41f
6:00am 5ft 10s 18 25 mph 1025.3mb 47f 41f
5:00am 5ft 9s 20 27 mph 1025.4mb 47f 41f
4:00am 5.5ft 10s 20 25 mph 1025.6mb 47f 41f
3:00am 6ft 6s 20 27 mph 1025.9mb 47f 41f
2:00am 6ft 7s 20 25 mph 1025.8mb 47f 41f
Wed 02/22 2:00am 4.5ft 10s 13 18 mph 1021.2mb 47f 39f
1:00am 4.5ft 14s 16 18 mph 1020.7mb 47f 40f
12:00am 4.5ft 14s 16 20 mph 1020.2mb 47f 41f
Tue 02/21 11:00pm 4.5ft 10s 9 11 mph 1019.9mb 47f 42f
10:00pm 4.5ft 10s 9 11 mph 1019.4mb 47f 42f
9:00pm 5ft 11s 13 18 mph 1019mb 47f 42f
8:00pm 5ft 11s 13 18 mph 1018.4mb 46f 42f
7:00pm 5.5ft 11s 16 20 mph 1017.9mb 46f 42f
6:00pm 5.5ft 11s 18 22 mph 1017.3mb 46f 42f
5:00pm 6ft 6s 18 22 mph 1016.8mb 46f 42f
4:00pm 5.5ft 10s 20 22 mph 1016.2mb 46f 43f
3:00pm 6ft 6s 18 22 mph 1015.7mb 47f 43f
2:00pm 5.5ft 12s 22 27 mph 1014.9mb 47f 42f
1:00pm 5.5ft 12s 18 22 mph 1014.2mb 47f 43f
12:00pm 4.5ft 12s 18 22 mph 1013.8mb 47f 42f
11:00am 4.5ft 11s 16 20 mph 1013.2mb 47f 40f
10:00am 4.5ft 10s 20 25 mph 1012.1mb 47f 40f
9:00am 4.5ft 11s 9 11 mph 1011.4mb 46f 40f
8:00am 4.5ft 11s 4
mph
1010.8mb 46f 41f
7:00am 4.5ft 11s 9 13 mph 1010.1mb 47f 41f
6:00am 4.5ft 10s 9 11 mph 1009.7mb 46f 42f
5:00am 4.5ft 10s 11 13 mph 1009.5mb 46f 40f
4:00am 4.5ft 10s 18 20 mph 1008.9mb 46f 41f
3:00am 4.5ft 12s 2 4 mph 1008.8mb 46f 41f
2:00am 5ft 11s 7 9 mph 1008.6mb 46f 41f
1:00am 5ft 11s 13 20 mph 1008mb 46f 41f
12:00am 5ft 10s 9 13 mph 1007.5mb 46f 43f
Mon 02/20 11:00pm 5.5ft 12s 4 13 mph 1007.2mb 46f 42f
10:00pm 5.5ft 12s 9 11 mph 1006.9mb 46f 42f
9:00pm 6ft 12s 11 13 mph 1006.6mb 46f 41f
8:00pm 6ft 12s 7 11 mph 1006.2mb 47f 42f
7:00pm 5.5ft 11s 13 16 mph 1005.9mb 47f 42f
6:00pm 6ft 12s 11 16 mph 1005.5mb 47f 43f
5:00pm 7ft 12s 13 18 mph 1005.1mb 47f 43f
4:00pm 7ft 13s 11 16 mph 1004.7mb 47f 43f
3:00pm 6.5ft 12s 13 16 mph 1004.2mb 47f 44f
2:00pm 7ft 13s 9 11 mph 1003.8mb 47f 43f
1:00pm 6.5ft 10s 9 11 mph 1003.6mb 47f 41f
12:00pm 7ft 13s 20 25 mph 1003.1mb 47f 41f
11:00am 7ft 13s 18 22 mph 1002.7mb 47f 42f
10:00am 7ft 12s 9 13 mph 1002mb 46f 43f
9:00am 7ft 13s 11 13 mph 1001.4mb 46f 43f
8:00am 7ft 14s 11 18 mph 1000.9mb 46f 43f
7:00am 7ft 14s 9 11 mph 1000.4mb 47f 43f
6:00am 7ft 13s 9 13 mph 1000.3mb 47f 43f
5:00am 7ft 15s 9 13 mph 1000.2mb 47f 43f
4:00am 6.5ft 14s 9 16 mph 1000.2mb 47f 42f
3:00am 6.5ft 14s 11 13 mph 1000.2mb 46f 43f
2:00am 6ft 13s 11 16 mph 1000mb 46f 43f
1:00am 6ft 15s 9 13 mph 999.8mb 46f 42f
12:00am 5.5ft 16s 9 13 mph 999.3mb 46f 43f
Sun 02/19 11:00pm 6ft 16s 13 16 mph 998.9mb 46f 42f
10:00pm 6ft 15s 7 11 mph 998.6mb 47f 43f
9:00pm 6ft 16s 7 9 mph 998mb 47f 43f